Time;durP1;ratioP1;P1;durP2;ratioP2;P2;SDS_P1;SDS_P2;PMS_P1;PMS_P2;Temp;Humidity;BMP_temperature;BMP_pressure;BME280_temperature;BME280_humidity;BME280_pressure;Samples;Min_cycle;Max_cycle;Signal;HPM_P1;HPM_P2
2021/01/21 00:01:59;;;;;;;4.13;2.38;;;;;;;;;;5095133;28;20016;-63
2021/01/21 00:04:24;;;;;;;5.75;2.90;;;;;;;;;;5095045;28;20043;-63
2021/01/21 00:06:50;;;;;;;6.45;2.80;;;;;;;;;;5093912;28;20498;-63
2021/01/21 00:09:16;;;;;;;10.75;4.90;;;;;;;;;;5091536;28;20055;-63
2021/01/21 00:11:41;;;;;;;5.72;2.60;;;;;;;;;;5093684;28;20024;-63
2021/01/21 00:14:06;;;;;;;8.48;4.05;;;;;;;;;;5094858;28;20020;-63
2021/01/21 00:16:32;;;;;;;1.13;0.15;;;;;;;;;;5093428;28;20035;-63
2021/01/21 00:18:57;;;;;;;0.68;0.20;;;;;;;;;;5091734;28;20027;-63
2021/01/21 00:21:22;;;;;;;3.67;0.90;;;;;;;;;;5094712;28;20024;-64
2021/01/21 00:23:47;;;;;;;2.08;0.65;;;;;;;;;;5094641;28;20379;-63
2021/01/21 00:26:13;;;;;;;3.83;1.35;;;;;;;;;;5095391;28;20024;-63
2021/01/21 00:28:38;;;;;;;2.72;0.70;;;;;;;;;;5091401;28;20055;-63
2021/01/21 00:31:03;;;;;;;0.82;0.30;;;;;;;;;;5094403;28;20016;-63
2021/01/21 00:33:28;;;;;;;0.45;0.10;;;;;;;;;;5093255;28;20020;-63
2021/01/21 00:35:54;;;;;;;1.80;0.30;;;;;;;;;;5094474;28;20016;-63
2021/01/21 00:38:19;;;;;;;1.10;0.20;;;;;;;;;;5093544;28;20031;-64
2021/01/21 00:40:44;;;;;;;1.00;0.30;;;;;;;;;;5091310;28;20016;-63
2021/01/21 00:43:09;;;;;;;1.40;0.15;;;;;;;;;;5094651;28;20020;-63
2021/01/21 00:45:34;;;;;;;0.40;0.20;;;;;;;;;;5092918;28;20032;-63
2021/01/21 00:48:00;;;;;;;0.77;0.30;;;;;;;;;;5094308;28;20024;-63
2021/01/21 00:50:25;;;;;;;0.43;0.30;;;;;;;;;;5090824;28;20070;-63
2021/01/21 00:52:50;;;;;;;0.50;0.10;;;;;;;;;;5094218;28;20371;-62
2021/01/21 00:55:15;;;;;;;0.98;0.10;;;;;;;;;;5094039;28;20111;-64
2021/01/21 00:57:41;;;;;;;1.00;0.10;;;;;;;;;;5092729;28;20027;-62
2021/01/21 01:00:07;;;;;;;0.68;0.10;;;;;;;;;;5090339;28;20020;-63
2021/01/21 01:02:32;;;;;;;1.65;0.10;;;;;;;;;;5093594;28;20074;-63
2021/01/21 01:04:57;;;;;;;0.85;0.30;;;;;;;;;;5093547;28;20378;-63
2021/01/21 01:07:23;;;;;;;0.75;0.20;;;;;;;;;;5093785;28;20463;-63
2021/01/21 01:09:48;;;;;;;0.30;0.10;;;;;;;;;;5090599;28;20039;-63
2021/01/21 01:12:13;;;;;;;0.50;0.20;;;;;;;;;;5094097;28;20047;-63
2021/01/21 01:14:38;;;;;;;0.77;0.10;;;;;;;;;;5079412;28;20055;-63
2021/01/21 01:17:03;;;;;;;0.47;0.10;;;;;;;;;;5091286;28;20027;-63
2021/01/21 01:19:29;;;;;;;0.45;0.10;;;;;;;;;;5090385;28;20048;-63
2021/01/21 01:21:54;;;;;;;0.25;0.10;;;;;;;;;;5093432;28;20020;-63
2021/01/21 01:24:21;;;;;;;0.40;0.10;;;;;;;;;;5091413;28;20032;-63
2021/01/21 01:26:46;;;;;;;0.32;0.10;;;;;;;;;;5092390;28;20081;-63
2021/01/21 01:29:12;;;;;;;0.55;0.20;;;;;;;;;;5088683;28;20107;-63
2021/01/21 01:31:37;;;;;;;0.50;0.10;;;;;;;;;;5091918;28;20024;-63
2021/01/21 01:34:02;;;;;;;0.40;0.10;;;;;;;;;;5093272;28;20069;-63
2021/01/21 01:36:27;;;;;;;0.38;0.10;;;;;;;;;;5090492;28;20103;-63
2021/01/21 01:38:53;;;;;;;0.40;0.20;;;;;;;;;;5089219;28;20227;-63
2021/01/21 01:41:18;;;;;;;0.60;0.20;;;;;;;;;;5093227;28;20463;-63
2021/01/21 01:43:43;;;;;;;0.20;0.10;;;;;;;;;;5093311;28;20016;-63
2021/01/21 01:46:08;;;;;;;0.13;0.10;;;;;;;;;;5093458;28;20020;-63
2021/01/21 01:48:34;;;;;;;0.65;0.10;;;;;;;;;;5090341;28;20103;-64
2021/01/21 01:50:59;;;;;;;0.82;0.20;;;;;;;;;;5092148;28;20483;-63
2021/01/21 01:53:27;;;;;;;0.25;0.10;;;;;;;;;;5091212;28;20106;-63
2021/01/21 01:55:52;;;;;;;0.77;0.20;;;;;;;;;;5085795;28;20467;-63
2021/01/21 01:58:18;;;;;;;0.35;0.10;;;;;;;;;;5091873;28;20015;-63
2021/01/21 02:00:44;;;;;;;1.58;0.10;;;;;;;;;;5090706;28;20447;-63
2021/01/21 02:03:10;;;;;;;1.10;0.10;;;;;;;;;;5092918;28;20019;-63
2021/01/21 02:05:35;;;;;;;0.30;0.10;;;;;;;;;;5092370;28;20064;-64
2021/01/21 02:08:01;;;;;;;0.50;0.20;;;;;;;;;;5089939;28;20066;-63
2021/01/21 02:10:26;;;;;;;0.40;0.10;;;;;;;;;;5086175;28;20486;-63
2021/01/21 02:12:59;;;;;;;0.98;0.10;;;;;;;;;;5092673;28;20042;-63
2021/01/21 02:15:34;;;;;;;1.08;0.15;;;;;;;;;;5091187;28;20024;-63
2021/01/21 02:18:12;;;;;;;0.95;0.10;;;;;;;;;;5089731;28;20474;-63
2021/01/21 02:20:40;;;;;;;0.40;0.10;;;;;;;;;;5087886;28;20525;-63
2021/01/21 02:23:14;;;;;;;0.32;0.20;;;;;;;;;;5091412;28;20020;-62
2021/01/21 02:25:46;;;;;;;0.95;0.10;;;;;;;;;;5091976;28;20526;-63
2021/01/21 02:28:11;;;;;;;0.82;0.20;;;;;;;;;;5087750;28;20052;-63
2021/01/21 02:30:49;;;;;;;0.77;0.20;;;;;;;;;;5088680;28;20106;-63
2021/01/21 02:33:33;;;;;;;0.40;0.17;;;;;;;;;;5090444;28;20020;-62
2021/01/21 02:36:00;;;;;;;0.60;0.20;;;;;;;;;;5091119;28;20166;-63
2021/01/21 02:38:26;;;;;;;0.52;0.20;;;;;;;;;;5089803;28;20027;-63
2021/01/21 02:40:51;;;;;;;0.65;0.15;;;;;;;;;;5088676;28;20390;-63
2021/01/21 02:43:17;;;;;;;0.30;0.20;;;;;;;;;;5092474;28;20020;-63
2021/01/21 02:45:42;;;;;;;0.70;0.20;;;;;;;;;;5090855;28;20069;-63
2021/01/21 02:48:07;;;;;;;0.30;0.10;;;;;;;;;;5090403;28;20040;-62
2021/01/21 02:50:33;;;;;;;0.28;0.10;;;;;;;;;;5088323;28;20024;-63
2021/01/21 02:53:00;;;;;;;0.82;0.10;;;;;;;;;;5089802;28;20024;-63
2021/01/21 02:55:40;;;;;;;0.43;0.10;;;;;;;;;;5089589;28;20022;-63
2021/01/21 02:58:12;;;;;;;0.30;0.20;;;;;;;;;;5090169;28;20016;-62
2021/01/21 03:00:38;;;;;;;0.32;0.10;;;;;;;;;;5087592;28;20111;-63
2021/01/21 03:03:14;;;;;;;2.28;0.10;;;;;;;;;;5092465;28;20509;-63
2021/01/21 03:05:40;;;;;;;0.40;0.10;;;;;;;;;;5091956;28;20024;-63
2021/01/21 03:08:06;;;;;;;0.30;0.10;;;;;;;;;;5089162;28;20025;-63
2021/01/21 03:10:31;;;;;;;0.63;0.10;;;;;;;;;;5088239;28;20018;-63
2021/01/21 03:12:58;;;;;;;1.17;0.20;;;;;;;;;;5091862;28;20028;-64
2021/01/21 03:15:23;;;;;;;1.13;0.10;;;;;;;;;;5088470;28;20370;-63
2021/01/21 03:17:49;;;;;;;0.20;0.10;;;;;;;;;;5089350;28;20012;-63
2021/01/21 03:20:14;;;;;;;0.63;0.10;;;;;;;;;;5087698;28;20399;-63
2021/01/21 03:22:39;;;;;;;0.20;0.10;;;;;;;;;;5093842;28;20047;-63
2021/01/21 03:25:05;;;;;;;2.53;0.20;;;;;;;;;;5092413;28;20063;-63
2021/01/21 03:27:30;;;;;;;0.10;0.10;;;;;;;;;;5094386;28;20108;-63
2021/01/21 03:29:55;;;;;;;0.30;0.22;;;;;;;;;;5091796;28;20024;-63
2021/01/21 03:32:20;;;;;;;0.30;0.10;;;;;;;;;;5093188;28;20352;-63
2021/01/21 03:34:46;;;;;;;0.40;0.10;;;;;;;;;;5095728;28;20465;-63
2021/01/21 03:37:11;;;;;;;0.52;0.10;;;;;;;;;;5095013;28;20462;-63
2021/01/21 03:39:36;;;;;;;1.25;0.10;;;;;;;;;;5089621;28;20024;-62
2021/01/21 03:42:02;;;;;;;1.17;0.15;;;;;;;;;;5095090;28;20031;-63
2021/01/21 03:44:27;;;;;;;0.20;0.10;;;;;;;;;;5093783;28;20035;-63
2021/01/21 03:46:52;;;;;;;0.70;0.20;;;;;;;;;;5093735;28;20032;-63
2021/01/21 03:49:17;;;;;;;0.80;0.20;;;;;;;;;;5091518;28;20035;-63
2021/01/21 03:51:42;;;;;;;0.40;0.20;;;;;;;;;;5094650;28;20032;-63
2021/01/21 03:54:08;;;;;;;1.75;0.20;;;;;;;;;;5093267;28;20024;-63
2021/01/21 03:56:33;;;;;;;0.30;0.20;;;;;;;;;;5093186;28;20063;-63
2021/01/21 03:58:58;;;;;;;0.20;0.10;;;;;;;;;;5090893;28;20339;-64
2021/01/21 04:01:23;;;;;;;0.30;0.10;;;;;;;;;;5094462;28;20016;-63
2021/01/21 04:03:49;;;;;;;0.32;0.13;;;;;;;;;;5093294;28;20463;-63
2021/01/21 04:06:14;;;;;;;0.40;0.10;;;;;;;;;;5095915;28;20023;-64
2021/01/21 04:08:40;;;;;;;0.50;0.10;;;;;;;;;;5089793;28;20107;-63
2021/01/21 04:11:05;;;;;;;0.47;0.20;;;;;;;;;;5093772;28;20016;-63
2021/01/21 04:13:30;;;;;;;3.10;0.15;;;;;;;;;;5093923;28;20016;-63
2021/01/21 04:15:55;;;;;;;0.30;0.20;;;;;;;;;;5094584;28;20020;-63
2021/01/21 04:18:20;;;;;;;1.05;0.10;;;;;;;;;;5092869;28;20127;-63
2021/01/21 04:20:46;;;;;;;1.55;0.20;;;;;;;;;;5090287;28;20137;-63
2021/01/21 04:23:11;;;;;;;0.50;0.13;;;;;;;;;;5092443;28;20047;-62
2021/01/21 04:25:36;;;;;;;0.50;0.15;;;;;;;;;;5094705;28;20119;-63
2021/01/21 04:28:03;;;;;;;1.10;0.20;;;;;;;;;;5089471;28;20492;-63
2021/01/21 04:30:28;;;;;;;0.68;0.20;;;;;;;;;;5078880;28;20078;-63
2021/01/21 04:32:53;;;;;;;0.30;0.10;;;;;;;;;;5093068;28;20372;-63
2021/01/21 04:35:18;;;;;;;0.60;0.20;;;;;;;;;;5093086;28;20462;-63
2021/01/21 04:37:44;;;;;;;0.30;0.10;;;;;;;;;;5085253;28;20023;-62
2021/01/21 04:40:09;;;;;;;0.50;0.20;;;;;;;;;;5086786;28;20024;-62
2021/01/21 04:42:35;;;;;;;0.20;0.20;;;;;;;;;;5092670;28;20024;-63
2021/01/21 04:45:00;;;;;;;0.43;0.20;;;;;;;;;;5094734;28;20024;-63
2021/01/21 04:47:27;;;;;;;0.40;0.20;;;;;;;;;;5093764;28;20382;-63
2021/01/21 04:49:52;;;;;;;0.80;0.20;;;;;;;;;;5089071;28;20069;-63
2021/01/21 04:52:17;;;;;;;0.80;0.20;;;;;;;;;;5094381;28;20106;-62
2021/01/21 04:54:46;;;;;;;0.95;0.20;;;;;;;;;;5090475;28;20161;-63
2021/01/21 04:57:13;;;;;;;0.45;0.15;;;;;;;;;;5091667;28;20032;-63
2021/01/21 04:59:40;;;;;;;0.47;0.10;;;;;;;;;;5090697;28;20124;-63
2021/01/21 05:02:05;;;;;;;0.40;0.30;;;;;;;;;;5093441;28;20030;-63
2021/01/21 05:04:31;;;;;;;0.22;0.20;;;;;;;;;;5093377;28;20027;-63
2021/01/21 05:06:56;;;;;;;0.28;0.20;;;;;;;;;;5093960;28;20027;-63
2021/01/21 05:09:21;;;;;;;1.05;0.22;;;;;;;;;;5088904;28;20462;-63
2021/01/21 05:11:47;;;;;;;0.43;0.20;;;;;;;;;;5094280;28;20066;-64
2021/01/21 05:14:12;;;;;;;0.40;0.10;;;;;;;;;;5091005;28;20026;-63
2021/01/21 05:16:37;;;;;;;0.73;0.10;;;;;;;;;;5092244;28;20027;-63
2021/01/21 05:19:03;;;;;;;0.85;0.20;;;;;;;;;;5089297;28;20094;-63
2021/01/21 05:21:28;;;;;;;1.58;0.20;;;;;;;;;;5091725;28;20020;-63
2021/01/21 05:23:56;;;;;;;0.30;0.20;;;;;;;;;;5091729;28;20425;-63
2021/01/21 05:26:22;;;;;;;0.65;0.20;;;;;;;;;;5093692;28;20103;-64
2021/01/21 05:28:48;;;;;;;0.63;0.20;;;;;;;;;;5089356;28;20415;-64
2021/01/21 05:31:13;;;;;;;0.60;0.30;;;;;;;;;;5090401;28;20020;-63
2021/01/21 05:33:39;;;;;;;0.40;0.20;;;;;;;;;;5089537;28;20036;-63
2021/01/21 05:36:04;;;;;;;0.70;0.20;;;;;;;;;;5092873;28;20028;-64
2021/01/21 05:38:30;;;;;;;0.85;0.20;;;;;;;;;;5088462;28;20920;-63
2021/01/21 05:40:57;;;;;;;0.85;0.20;;;;;;;;;;5091287;28;20032;-63
2021/01/21 05:43:22;;;;;;;0.70;0.40;;;;;;;;;;5091063;28;20024;-62
2021/01/21 05:45:47;;;;;;;0.63;0.20;;;;;;;;;;5091995;28;20502;-63
2021/01/21 05:48:13;;;;;;;1.77;0.52;;;;;;;;;;5093008;28;20024;-63
2021/01/21 05:50:38;;;;;;;1.08;0.50;;;;;;;;;;5090085;28;20027;-63
2021/01/21 05:53:05;;;;;;;0.40;0.30;;;;;;;;;;5091733;28;20016;-63
2021/01/21 05:55:31;;;;;;;0.60;0.20;;;;;;;;;;5090142;28;20020;-63
2021/01/21 05:57:56;;;;;;;1.73;0.50;;;;;;;;;;5091858;28;20013;-63
2021/01/21 06:00:24;;;;;;;0.68;0.30;;;;;;;;;;5087635;28;20016;-63
2021/01/21 06:02:50;;;;;;;0.40;0.30;;;;;;;;;;5092427;28;20095;-63
2021/01/21 06:05:19;;;;;;;1.02;0.38;;;;;;;;;;5091116;28;20056;-63
2021/01/21 06:07:48;;;;;;;0.60;0.30;;;;;;;;;;5092365;28;20020;-63
2021/01/21 06:10:14;;;;;;;1.80;0.40;;;;;;;;;;5089280;28;20106;-64
2021/01/21 06:12:41;;;;;;;1.38;0.25;;;;;;;;;;5091180;28;20454;-63
2021/01/21 06:15:09;;;;;;;0.60;0.25;;;;;;;;;;5083348;28;20310;-63
2021/01/21 06:17:34;;;;;;;1.05;0.30;;;;;;;;;;5071336;28;20051;-63
2021/01/21 06:19:59;;;;;;;0.60;0.20;;;;;;;;;;5084873;28;20020;-63
2021/01/21 06:22:28;;;;;;;1.23;0.30;;;;;;;;;;5091367;28;20030;-63
2021/01/21 06:24:56;;;;;;;1.30;0.30;;;;;;;;;;5089424;28;20371;-63
2021/01/21 06:27:22;;;;;;;1.42;0.30;;;;;;;;;;5092333;28;20559;-64
2021/01/21 06:29:48;;;;;;;0.60;0.30;;;;;;;;;;5087305;28;20165;-63
2021/01/21 06:32:15;;;;;;;0.47;0.20;;;;;;;;;;5089558;28;20403;-64
2021/01/21 06:34:41;;;;;;;0.88;0.50;;;;;;;;;;5090339;28;20028;-64
2021/01/21 06:37:13;;;;;;;2.20;1.33;;;;;;;;;;5088882;28;20028;-64
2021/01/21 06:39:47;;;;;;;1.27;1.10;;;;;;;;;;5088663;28;20024;-64
2021/01/21 06:42:17;;;;;;;0.90;0.30;;;;;;;;;;5092127;28;20012;-64
2021/01/21 06:44:42;;;;;;;0.85;0.40;;;;;;;;;;5089734;28;20032;-64
2021/01/21 06:47:08;;;;;;;0.63;0.20;;;;;;;;;;5092198;28;20042;-64
2021/01/21 06:49:33;;;;;;;2.97;0.30;;;;;;;;;;5077217;28;20024;-65
2021/01/21 06:51:58;;;;;;;0.68;0.30;;;;;;;;;;5073327;28;20103;-64
2021/01/21 06:54:24;;;;;;;0.68;0.20;;;;;;;;;;5088879;28;20016;-64
2021/01/21 06:56:49;;;;;;;0.82;0.38;;;;;;;;;;5090985;28;20020;-64
2021/01/21 06:59:15;;;;;;;0.52;0.20;;;;;;;;;;5092747;28;20100;-64
2021/01/21 07:01:40;;;;;;;0.90;0.22;;;;;;;;;;5093487;28;20020;-63
2021/01/21 07:04:08;;;;;;;0.90;0.40;;;;;;;;;;5094690;28;20037;-63
2021/01/21 07:06:51;;;;;;;0.50;0.40;;;;;;;;;;5094063;28;20463;-63
2021/01/21 07:09:17;;;;;;;0.63;0.38;;;;;;;;;;5091561;28;20008;-63
2021/01/21 07:11:43;;;;;;;2.10;0.60;;;;;;;;;;5096629;28;20439;-63
2021/01/21 07:14:10;;;;;;;0.40;0.28;;;;;;;;;;5095083;28;20023;-63
2021/01/21 07:16:35;;;;;;;1.60;0.20;;;;;;;;;;5093485;28;20031;-62
2021/01/21 07:19:02;;;;;;;1.08;0.30;;;;;;;;;;5080708;28;20020;-63
2021/01/21 07:21:30;;;;;;;1.40;0.40;;;;;;;;;;5084719;28;20028;-62
2021/01/21 07:23:56;;;;;;;1.30;0.32;;;;;;;;;;5092733;28;20028;-63
2021/01/21 07:26:21;;;;;;;0.47;0.30;;;;;;;;;;5087206;28;20115;-63
2021/01/21 07:28:50;;;;;;;0.50;0.32;;;;;;;;;;5084756;28;20119;-63
2021/01/21 07:31:16;;;;;;;1.15;0.32;;;;;;;;;;5086009;28;20422;-63
2021/01/21 07:33:41;;;;;;;0.45;0.20;;;;;;;;;;5089842;28;20072;-63
2021/01/21 07:36:26;;;;;;;0.90;0.20;;;;;;;;;;5090338;28;20027;-62
2021/01/21 07:38:51;;;;;;;1.67;0.10;;;;;;;;;;5090842;28;20027;-63
2021/01/21 07:41:35;;;;;;;1.02;0.10;;;;;;;;;;5095400;28;20028;-62
2021/01/21 07:44:00;;;;;;;0.45;0.10;;;;;;;;;;5095270;28;20099;-62
2021/01/21 07:46:26;;;;;;;0.40;0.20;;;;;;;;;;5092927;28;20106;-62
2021/01/21 07:49:10;;;;;;;0.93;0.20;;;;;;;;;;5090667;28;20115;-62
2021/01/21 07:51:35;;;;;;;0.63;0.20;;;;;;;;;;5094125;28;20434;-61
2021/01/21 07:54:04;;;;;;;1.25;0.20;;;;;;;;;;5092969;28;20103;-62
2021/01/21 07:56:30;;;;;;;1.48;0.30;;;;;;;;;;5094561;28;20099;-62
2021/01/21 07:59:01;;;;;;;1.08;0.20;;;;;;;;;;5091979;28;20510;-62
2021/01/21 08:01:26;;;;;;;0.98;0.20;;;;;;;;;;5093838;28;20095;-63
2021/01/21 08:03:52;;;;;;;0.90;0.20;;;;;;;;;;5094820;28;20107;-63
2021/01/21 08:06:18;;;;;;;0.52;0.38;;;;;;;;;;5092821;28;20022;-63
2021/01/21 08:08:44;;;;;;;0.55;0.20;;;;;;;;;;5079679;28;20245;-62
2021/01/21 08:11:11;;;;;;;0.73;0.20;;;;;;;;;;5094308;28;20016;-64
2021/01/21 08:13:37;;;;;;;0.60;0.30;;;;;;;;;;5082489;28;20107;-63
2021/01/21 08:16:03;;;;;;;0.65;0.20;;;;;;;;;;5090701;28;20094;-63
2021/01/21 08:18:28;;;;;;;0.50;0.20;;;;;;;;;;5093099;28;20352;-64
2021/01/21 08:20:53;;;;;;;0.32;0.20;;;;;;;;;;5092871;28;20100;-63
2021/01/21 08:23:18;;;;;;;2.33;0.30;;;;;;;;;;5093412;28;20073;-63
2021/01/21 08:25:45;;;;;;;0.50;0.20;;;;;;;;;;5092228;28;20059;-64
2021/01/21 08:28:14;;;;;;;0.50;0.30;;;;;;;;;;5090506;28;20597;-63
2021/01/21 08:30:39;;;;;;;0.40;0.10;;;;;;;;;;5087157;28;20421;-64
2021/01/21 08:33:04;;;;;;;1.83;0.20;;;;;;;;;;5091148;28;20520;-64
2021/01/21 08:35:33;;;;;;;0.30;0.20;;;;;;;;;;5089086;28;20392;-63
2021/01/21 08:37:59;;;;;;;0.73;0.30;;;;;;;;;;5082549;28;20089;-64
2021/01/21 08:40:24;;;;;;;1.35;0.28;;;;;;;;;;5075986;28;20061;-64
2021/01/21 08:42:50;;;;;;;0.55;0.30;;;;;;;;;;5085457;28;20056;-66
2021/01/21 08:45:16;;;;;;;0.40;0.20;;;;;;;;;;5093901;28;20060;-64
2021/01/21 08:47:45;;;;;;;0.60;0.20;;;;;;;;;;5094043;28;20513;-64
2021/01/21 08:50:11;;;;;;;2.35;0.30;;;;;;;;;;5087789;28;20127;-64
2021/01/21 08:52:53;;;;;;;0.82;0.30;;;;;;;;;;5089774;28;20577;-65
2021/01/21 08:55:19;;;;;;;1.13;0.30;;;;;;;;;;5085068;28;20158;-65
2021/01/21 08:58:00;;;;;;;0.70;0.43;;;;;;;;;;5093952;28;20075;-65
2021/01/21 09:00:25;;;;;;;0.82;0.40;;;;;;;;;;5090298;28;20284;-64
2021/01/21 09:02:50;;;;;;;0.63;0.20;;;;;;;;;;5093453;28;20028;-64
2021/01/21 09:05:16;;;;;;;1.27;0.30;;;;;;;;;;5090921;28;20028;-63
2021/01/21 09:07:41;;;;;;;1.25;0.52;;;;;;;;;;5090423;28;20053;-64
2021/01/21 09:10:11;;;;;;;1.20;0.50;;;;;;;;;;5090391;28;20019;-64
2021/01/21 09:12:36;;;;;;;3.30;0.40;;;;;;;;;;5092804;28;20081;-64
2021/01/21 09:15:03;;;;;;;0.57;0.30;;;;;;;;;;5093082;28;20459;-64
2021/01/21 09:17:28;;;;;;;1.48;0.25;;;;;;;;;;5091485;28;20027;-63
2021/01/21 09:19:53;;;;;;;1.30;0.20;;;;;;;;;;5089846;28;20016;-63
2021/01/21 09:22:22;;;;;;;0.38;0.20;;;;;;;;;;5087462;28;20028;-63
2021/01/21 09:24:54;;;;;;;0.70;0.30;;;;;;;;;;5093433;28;20020;-64
2021/01/21 09:27:19;;;;;;;0.55;0.20;;;;;;;;;;5091150;28;20035;-64
2021/01/21 09:29:55;;;;;;;0.40;0.20;;;;;;;;;;5081485;28;20016;-63
2021/01/21 09:32:31;;;;;;;0.30;0.20;;;;;;;;;;5090355;28;20047;-64
2021/01/21 09:35:05;;;;;;;0.68;0.30;;;;;;;;;;5088745;28;20028;-63
2021/01/21 09:37:33;;;;;;;0.40;0.20;;;;;;;;;;5091438;28;20039;-64
2021/01/21 09:39:58;;;;;;;0.73;0.30;;;;;;;;;;5082950;28;20020;-64
2021/01/21 09:42:24;;;;;;;0.80;0.45;;;;;;;;;;5091896;28;20026;-63
2021/01/21 09:44:49;;;;;;;1.02;0.35;;;;;;;;;;5092165;28;20126;-64
2021/01/21 09:47:15;;;;;;;1.48;0.30;;;;;;;;;;5089795;28;20035;-64
2021/01/21 09:49:40;;;;;;;0.60;0.30;;;;;;;;;;5083371;28;20081;-64
2021/01/21 09:52:06;;;;;;;1.08;0.30;;;;;;;;;;5091456;28;20158;-64
2021/01/21 09:54:32;;;;;;;0.40;0.38;;;;;;;;;;5091980;28;20102;-64
2021/01/21 09:56:57;;;;;;;0.50;0.20;;;;;;;;;;5092005;28;20367;-64
2021/01/21 09:59:22;;;;;;;0.80;0.50;;;;;;;;;;5088883;28;20463;-65
2021/01/21 10:01:48;;;;;;;0.40;0.20;;;;;;;;;;5091790;28;20485;-64
2021/01/21 10:04:14;;;;;;;0.50;0.30;;;;;;;;;;5092620;28;20104;-65
2021/01/21 10:06:39;;;;;;;1.63;0.30;;;;;;;;;;5092348;28;20378;-64
2021/01/21 10:09:04;;;;;;;0.38;0.20;;;;;;;;;;5085180;28;20020;-65
2021/01/21 10:11:30;;;;;;;1.70;0.30;;;;;;;;;;5087800;28;20020;-65
2021/01/21 10:13:55;;;;;;;2.00;0.60;;;;;;;;;;5086633;28;20195;-65
2021/01/21 10:16:20;;;;;;;0.40;0.32;;;;;;;;;;5091057;28;20122;-64
2021/01/21 10:18:45;;;;;;;1.63;0.40;;;;;;;;;;5087943;28;20296;-64
2021/01/21 10:21:11;;;;;;;1.25;0.50;;;;;;;;;;5084487;28;20012;-64
2021/01/21 10:23:36;;;;;;;0.93;0.40;;;;;;;;;;5090567;28;20089;-64
2021/01/21 10:26:01;;;;;;;0.82;0.40;;;;;;;;;;5090054;28;20463;-64
2021/01/21 10:28:26;;;;;;;0.30;0.30;;;;;;;;;;5090814;28;20047;-65
2021/01/21 10:30:52;;;;;;;1.77;0.40;;;;;;;;;;5089160;28;20443;-64
2021/01/21 10:33:17;;;;;;;0.85;0.50;;;;;;;;;;5091000;28;20024;-63
2021/01/21 10:35:42;;;;;;;0.73;0.35;;;;;;;;;;5091964;28;20092;-64
2021/01/21 10:38:07;;;;;;;1.35;0.40;;;;;;;;;;5090461;28;20123;-63
2021/01/21 10:40:32;;;;;;;0.95;0.30;;;;;;;;;;5087161;28;20103;-64
2021/01/21 10:42:58;;;;;;;1.33;0.28;;;;;;;;;;5090391;28;20048;-64
2021/01/21 10:45:23;;;;;;;0.75;0.30;;;;;;;;;;5083888;28;20055;-64
2021/01/21 10:47:48;;;;;;;0.40;0.20;;;;;;;;;;5090626;28;20012;-64
2021/01/21 10:50:14;;;;;;;0.43;0.20;;;;;;;;;;5089405;28;20031;-65
2021/01/21 10:52:39;;;;;;;0.47;0.20;;;;;;;;;;5089602;28;20506;-64
2021/01/21 10:55:04;;;;;;;0.60;0.20;;;;;;;;;;5090773;28;20378;-64
2021/01/21 10:57:30;;;;;;;1.33;0.20;;;;;;;;;;5090286;28;20023;-64
2021/01/21 10:59:55;;;;;;;1.25;0.22;;;;;;;;;;5080343;28;20024;-63
2021/01/21 11:02:20;;;;;;;0.40;0.30;;;;;;;;;;5090615;28;20034;-63
2021/01/21 11:04:45;;;;;;;0.68;0.20;;;;;;;;;;5091844;28;20034;-63
2021/01/21 11:07:10;;;;;;;0.63;0.30;;;;;;;;;;5087203;28;20020;-63
2021/01/21 11:09:36;;;;;;;2.00;0.60;;;;;;;;;;5081873;28;20032;-65
2021/01/21 11:12:04;;;;;;;1.17;0.40;;;;;;;;;;5085886;28;20425;-64
2021/01/21 11:14:30;;;;;;;0.40;0.40;;;;;;;;;;5085626;28;20020;-63
2021/01/21 11:16:55;;;;;;;0.63;0.30;;;;;;;;;;5091273;28;20170;-66
2021/01/21 11:19:21;;;;;;;0.80;0.20;;;;;;;;;;5085105;28;20020;-63
2021/01/21 11:21:46;;;;;;;1.38;0.30;;;;;;;;;;5090348;28;20375;-65
2021/01/21 11:24:12;;;;;;;1.02;0.20;;;;;;;;;;5088682;28;20024;-64
2021/01/21 11:26:37;;;;;;;0.30;0.20;;;;;;;;;;5088249;28;20052;-63
2021/01/21 11:29:02;;;;;;;0.65;0.20;;;;;;;;;;5083157;28;20442;-63
2021/01/21 11:31:28;;;;;;;0.68;0.25;;;;;;;;;;5087200;28;20099;-65
2021/01/21 11:33:53;;;;;;;0.75;0.30;;;;;;;;;;5090688;28;20095;-64
2021/01/21 11:36:19;;;;;;;0.35;0.28;;;;;;;;;;5089260;28;20045;-64
2021/01/21 11:38:44;;;;;;;0.30;0.20;;;;;;;;;;5088093;28;20039;-65
2021/01/21 11:41:09;;;;;;;0.50;0.30;;;;;;;;;;5090302;28;20024;-64
2021/01/21 11:43:34;;;;;;;0.50;0.30;;;;;;;;;;5090260;28;20364;-63
2021/01/21 11:46:00;;;;;;;0.30;0.22;;;;;;;;;;5094767;28;20100;-63
2021/01/21 11:48:25;;;;;;;0.70;0.20;;;;;;;;;;5088191;28;20016;-64
2021/01/21 11:50:50;;;;;;;0.68;0.25;;;;;;;;;;5091586;28;20028;-64
2021/01/21 11:53:15;;;;;;;0.30;0.20;;;;;;;;;;5092046;28;20431;-64
2021/01/21 11:55:41;;;;;;;0.30;0.20;;;;;;;;;;5091893;28;20402;-64
2021/01/21 11:58:06;;;;;;;0.50;0.28;;;;;;;;;;5085434;28;20020;-64
2021/01/21 12:00:31;;;;;;;0.35;0.20;;;;;;;;;;5090414;28;20119;-64
2021/01/21 12:02:56;;;;;;;1.05;0.28;;;;;;;;;;5093894;28;20364;-64
2021/01/21 12:05:22;;;;;;;0.30;0.20;;;;;;;;;;5089539;28;20020;-64
2021/01/21 12:07:47;;;;;;;0.40;0.20;;;;;;;;;;5093745;28;20042;-64
2021/01/21 12:10:16;;;;;;;0.50;0.20;;;;;;;;;;5091783;28;20024;-64
2021/01/21 12:12:41;;;;;;;0.20;0.20;;;;;;;;;;5091870;28;20020;-64
2021/01/21 12:15:07;;;;;;;0.30;0.30;;;;;;;;;;5089769;28;20027;-64
2021/01/21 12:17:32;;;;;;;0.40;0.20;;;;;;;;;;5084505;28;20034;-64
2021/01/21 12:19:57;;;;;;;0.50;0.30;;;;;;;;;;5091552;28;20048;-64
2021/01/21 12:22:22;;;;;;;0.60;0.30;;;;;;;;;;5091850;28;20073;-64
2021/01/21 12:24:48;;;;;;;0.68;0.30;;;;;;;;;;5089375;28;20081;-64
2021/01/21 12:27:13;;;;;;;1.13;0.30;;;;;;;;;;5094117;28;20073;-64
2021/01/21 12:29:38;;;;;;;0.35;0.10;;;;;;;;;;5091225;28;20028;-63
2021/01/21 12:32:04;;;;;;;0.30;0.20;;;;;;;;;;5093502;28;20035;-64
2021/01/21 12:34:29;;;;;;;0.40;0.20;;;;;;;;;;5092663;28;20065;-64
2021/01/21 12:36:54;;;;;;;0.30;0.17;;;;;;;;;;5093440;28;20471;-63
2021/01/21 12:39:20;;;;;;;0.40;0.20;;;;;;;;;;5085561;28;20043;-63
2021/01/21 12:41:45;;;;;;;0.30;0.10;;;;;;;;;;5091970;28;20596;-64
2021/01/21 12:44:10;;;;;;;0.75;0.20;;;;;;;;;;5094028;28;20519;-63
2021/01/21 12:46:35;;;;;;;0.52;0.20;;;;;;;;;;5088158;28;20502;-64
2021/01/21 12:49:01;;;;;;;0.73;0.20;;;;;;;;;;5088253;28;20020;-64
2021/01/21 12:51:26;;;;;;;0.93;0.13;;;;;;;;;;5087646;28;20486;-65
2021/01/21 12:53:51;;;;;;;0.43;0.20;;;;;;;;;;5082919;28;20021;-64
2021/01/21 12:56:17;;;;;;;1.30;0.40;;;;;;;;;;5089414;28;20043;-63
2021/01/21 12:58:42;;;;;;;0.75;0.40;;;;;;;;;;5086798;28;20055;-64
2021/01/21 13:01:07;;;;;;;0.63;0.20;;;;;;;;;;5087907;28;20028;-64
2021/01/21 13:03:33;;;;;;;0.40;0.20;;;;;;;;;;5093002;28;20054;-64
2021/01/21 13:05:58;;;;;;;1.00;0.30;;;;;;;;;;5090198;28;20091;-64
2021/01/21 13:08:23;;;;;;;0.40;0.20;;;;;;;;;;5091903;28;20016;-64
2021/01/21 13:10:48;;;;;;;0.70;0.30;;;;;;;;;;5091225;28;20024;-64
2021/01/21 13:13:14;;;;;;;0.50;0.20;;;;;;;;;;5093699;28;20066;-64
2021/01/21 13:15:40;;;;;;;0.35;0.20;;;;;;;;;;5092543;28;20069;-64
2021/01/21 13:18:05;;;;;;;0.50;0.30;;;;;;;;;;5090087;28;20024;-65
2021/01/21 13:20:30;;;;;;;0.85;0.28;;;;;;;;;;5088476;28;20103;-64
2021/01/21 13:22:55;;;;;;;0.85;0.20;;;;;;;;;;5091663;28;20024;-64
2021/01/21 13:25:21;;;;;;;0.55;0.30;;;;;;;;;;5087608;28;20471;-64
2021/01/21 13:27:48;;;;;;;0.40;0.25;;;;;;;;;;5076389;28;20044;-63
2021/01/21 13:30:13;;;;;;;1.30;0.20;;;;;;;;;;5090344;28;20024;-64
2021/01/21 13:32:39;;;;;;;0.38;0.30;;;;;;;;;;5089292;28;20030;-64
2021/01/21 13:35:04;;;;;;;0.52;0.20;;;;;;;;;;5082712;28;20016;-64
2021/01/21 13:37:30;;;;;;;0.60;0.20;;;;;;;;;;5092191;28;20020;-63
2021/01/21 13:39:55;;;;;;;0.45;0.20;;;;;;;;;;5081290;28;20525;-64
2021/01/21 13:42:22;;;;;;;0.40;0.40;;;;;;;;;;5090037;28;20032;-64
2021/01/21 13:44:47;;;;;;;1.38;0.30;;;;;;;;;;5092075;28;20040;-64
2021/01/21 13:47:12;;;;;;;1.40;0.40;;;;;;;;;;5089535;28;20054;-65
2021/01/21 13:49:38;;;;;;;0.17;0.10;;;;;;;;;;5080551;28;20032;-64
2021/01/21 13:52:03;;;;;;;0.43;0.17;;;;;;;;;;5074982;28;20029;-64
2021/01/21 13:54:28;;;;;;;0.47;0.20;;;;;;;;;;5084974;28;20020;-64
2021/01/21 13:56:53;;;;;;;0.55;0.20;;;;;;;;;;5091235;28;20449;-64
2021/01/21 13:59:19;;;;;;;0.63;0.30;;;;;;;;;;5087899;28;20070;-64
2021/01/21 14:01:44;;;;;;;0.70;0.20;;;;;;;;;;5091225;28;20446;-64
2021/01/21 14:04:09;;;;;;;0.73;0.15;;;;;;;;;;5092739;28;20046;-63
2021/01/21 14:06:34;;;;;;;0.85;0.30;;;;;;;;;;5088017;28;20395;-63
2021/01/21 14:09:02;;;;;;;1.02;0.20;;;;;;;;;;5086883;28;20093;-63
2021/01/21 14:11:27;;;;;;;0.50;0.20;;;;;;;;;;5087911;28;20099;-63
2021/01/21 14:13:53;;;;;;;0.57;0.20;;;;;;;;;;5086182;28;20165;-63
2021/01/21 14:16:18;;;;;;;0.38;0.20;;;;;;;;;;5090344;28;20012;-63
2021/01/21 14:18:43;;;;;;;0.52;0.10;;;;;;;;;;5087605;28;20008;-63
2021/01/21 14:21:09;;;;;;;0.30;0.30;;;;;;;;;;5089095;28;20020;-63
2021/01/21 14:23:34;;;;;;;0.50;0.20;;;;;;;;;;5089796;28;20027;-64
2021/01/21 14:25:59;;;;;;;0.55;0.20;;;;;;;;;;5087954;28;20374;-64
2021/01/21 14:28:27;;;;;;;0.60;0.20;;;;;;;;;;5090025;28;20042;-64
2021/01/21 14:30:53;;;;;;;1.02;0.28;;;;;;;;;;5090958;28;20020;-63
2021/01/21 14:33:18;;;;;;;0.25;0.20;;;;;;;;;;5091392;28;20016;-63
2021/01/21 14:35:43;;;;;;;0.95;0.20;;;;;;;;;;5089953;28;20087;-63
2021/01/21 14:38:09;;;;;;;0.60;0.20;;;;;;;;;;5089887;28;20016;-63